Time;durP1;ratioP1;P1;durP2;ratioP2;P2;SDS_P1;SDS_P2;PMS_P1;PMS_P2;Temp;Humidity;BMP_temperature;BMP_pressure;BME280_temperature;BME280_humidity;BME280_pressure;Samples;Min_cycle;Max_cycle;Signal;HPM_P1;HPM_P2
2023/10/01 00:01:03;;;;;;;30.13;24.55;;;;;;;;;;6263410;28;20061;-76
2023/10/01 00:04:06;;;;;;;32.60;23.20;;;;;;;;;;6268470;28;20051;-76
2023/10/01 00:07:08;;;;;;;31.10;24.05;;;;;;;;;;6269490;28;20083;-76
2023/10/01 00:10:13;;;;;;;28.13;22.33;;;;;;;;;;6266410;28;20151;-77
2023/10/01 00:13:16;;;;;;;31.88;23.88;;;;;;;;;;6265368;28;20371;-76
2023/10/01 00:16:18;;;;;;;30.35;24.05;;;;;;;;;;6264945;28;20056;-77
2023/10/01 00:19:19;;;;;;;31.33;22.88;;;;;;;;;;6268172;28;20065;-77
2023/10/01 00:22:21;;;;;;;29.90;21.75;;;;;;;;;;6262913;28;20052;-74
2023/10/01 00:25:24;;;;;;;28.77;22.85;;;;;;;;;;6267375;28;20353;-75
2023/10/01 00:28:27;;;;;;;28.17;23.20;;;;;;;;;;6266267;28;20120;-75
2023/10/01 00:31:30;;;;;;;28.55;23.05;;;;;;;;;;6264586;28;20075;-76
2023/10/01 00:34:31;;;;;;;29.65;21.77;;;;;;;;;;6265952;28;20061;-76
2023/10/01 00:37:33;;;;;;;26.60;21.02;;;;;;;;;;6268133;28;20045;-76
2023/10/01 00:40:35;;;;;;;28.23;21.75;;;;;;;;;;6265891;28;20337;-76
2023/10/01 00:43:39;;;;;;;27.08;21.08;;;;;;;;;;6260879;28;20051;-77
2023/10/01 00:46:43;;;;;;;29.27;21.15;;;;;;;;;;6260501;28;20061;-76
2023/10/01 00:49:46;;;;;;;28.75;21.55;;;;;;;;;;6262512;28;20057;-77
2023/10/01 00:52:49;;;;;;;25.55;20.42;;;;;;;;;;6262549;28;20048;-75
2023/10/01 00:55:51;;;;;;;26.10;21.07;;;;;;;;;;6267890;28;20080;-76
2023/10/01 00:58:54;;;;;;;26.02;20.98;;;;;;;;;;6264917;28;20444;-77
2023/10/01 01:01:56;;;;;;;26.33;21.25;;;;;;;;;;6266682;28;20045;-76
2023/10/01 01:05:19;;;;;;;26.88;20.40;;;;;;;;;;6265863;28;20060;-76
2023/10/01 01:08:22;;;;;;;28.40;20.67;;;;;;;;;;6253630;28;20336;-76
2023/10/01 01:11:26;;;;;;;28.88;20.02;;;;;;;;;;6262147;28;20057;-75
2023/10/01 01:14:30;;;;;;;26.27;21.13;;;;;;;;;;6265421;28;20399;-77
2023/10/01 01:17:33;;;;;;;27.02;19.95;;;;;;;;;;6266690;28;20057;-78
2023/10/01 01:20:43;;;;;;;31.50;20.92;;;;;;;;;;6266330;28;20342;-75
2023/10/01 01:23:46;;;;;;;28.20;20.10;;;;;;;;;;6260500;28;20076;-76
2023/10/01 01:26:51;;;;;;;;;;;;;;;;;;6261801;28;20061;-76
2023/10/01 01:29:54;;;;;;;30.48;20.75;;;;;;;;;;6261871;28;19917;-78
2023/10/01 01:32:57;;;;;;;28.87;20.90;;;;;;;;;;6265864;28;20136;-76
2023/10/01 01:35:59;;;;;;;;;;;;;;;;;;6267205;28;20673;-77
2023/10/01 01:39:26;;;;;;;29.85;21.55;;;;;;;;;;6266352;28;19923;-79
2023/10/01 01:42:28;;;;;;;27.83;21.33;;;;;;;;;;6257815;28;20091;-74
2023/10/01 01:45:33;;;;;;;28.73;20.60;;;;;;;;;;6268796;28;20353;-74
2023/10/01 01:48:37;;;;;;;30.48;21.15;;;;;;;;;;6264867;28;20073;-75
2023/10/01 01:51:40;;;;;;;26.83;20.45;;;;;;;;;;6265502;28;20291;-74
2023/10/01 01:54:45;;;;;;;29.90;20.80;;;;;;;;;;6266929;28;20073;-75
2023/10/01 01:58:02;;;;;;;30.02;21.35;;;;;;;;;;6263414;28;20079;-74
2023/10/01 02:04:20;;;;;;;30.80;20.33;;;;;;;;;;6267112;28;20056;-77
2023/10/01 02:07:22;;;;;;;24.48;20.80;;;;;;;;;;6259946;28;20053;-77
2023/10/01 02:10:25;;;;;;;24.30;21.17;;;;;;;;;;6259990;28;20052;-77
2023/10/01 02:13:27;;;;;;;28.50;22.55;;;;;;;;;;6262485;28;20060;-77
2023/10/01 02:16:35;;;;;;;28.13;21.42;;;;;;;;;;6265770;28;20059;-77
2023/10/01 02:19:37;;;;;;;30.50;22.45;;;;;;;;;;6265018;28;20048;-76
2023/10/01 02:22:40;;;;;;;29.70;21.85;;;;;;;;;;6262071;28;20049;-75
2023/10/01 02:25:46;;;;;;;29.13;22.05;;;;;;;;;;6264485;28;20095;-75
2023/10/01 02:28:47;;;;;;;27.23;21.10;;;;;;;;;;6265939;28;20094;-75
2023/10/01 02:31:54;;;;;;;27.95;21.20;;;;;;;;;;6265753;28;20106;-75
2023/10/01 02:34:57;;;;;;;27.42;21.92;;;;;;;;;;6264111;28;20360;-76
2023/10/01 02:38:00;;;;;;;30.33;22.40;;;;;;;;;;6265065;28;20076;-73
2023/10/01 02:41:08;;;;;;;28.08;21.80;;;;;;;;;;6261617;28;20053;-76
2023/10/01 02:44:11;;;;;;;26.05;21.55;;;;;;;;;;6258140;28;20052;-75
2023/10/01 02:47:17;;;;;;;28.67;21.35;;;;;;;;;;6262212;28;20037;-73
2023/10/01 02:50:20;;;;;;;28.10;21.75;;;;;;;;;;6262220;28;20368;-74
2023/10/01 02:53:22;;;;;;;25.35;20.92;;;;;;;;;;6266855;28;20218;-75
2023/10/01 02:56:25;;;;;;;27.92;19.88;;;;;;;;;;6268812;28;20312;-76
2023/10/01 02:59:27;;;;;;;26.98;21.05;;;;;;;;;;6270585;28;20136;-75
2023/10/01 03:02:31;;;;;;;26.27;20.00;;;;;;;;;;6269748;28;20088;-76
2023/10/01 03:05:36;;;;;;;27.60;20.83;;;;;;;;;;6269188;28;20045;-75
2023/10/01 03:12:24;;;;;;;26.70;20.80;;;;;;;;;;6267886;28;20049;-75
2023/10/01 03:15:29;;;;;;;29.23;21.38;;;;;;;;;;6270195;28;20170;-73
2023/10/01 03:18:34;;;;;;;26.40;20.52;;;;;;;;;;6267093;28;20053;-75
2023/10/01 03:24:58;;;;;;;28.45;19.90;;;;;;;;;;6268231;28;20124;-77
2023/10/01 03:28:01;;;;;;;26.75;21.08;;;;;;;;;;6269091;28;20049;-75
2023/10/01 03:31:09;;;;;;;24.75;19.33;;;;;;;;;;6267159;28;20054;-74
2023/10/01 03:34:11;;;;;;;26.65;19.95;;;;;;;;;;6264243;28;20671;-75
2023/10/01 03:37:19;;;;;;;26.73;20.65;;;;;;;;;;6271917;28;20387;-75
2023/10/01 03:40:22;;;;;;;26.85;21.58;;;;;;;;;;6267656;28;20056;-75
2023/10/01 03:43:32;;;;;;;26.92;21.05;;;;;;;;;;6271748;28;20041;-75
2023/10/01 03:46:42;;;;;;;24.15;20.45;;;;;;;;;;6269475;28;20253;-76
2023/10/01 03:49:44;;;;;;;24.10;19.88;;;;;;;;;;6266500;28;20075;-74
2023/10/01 03:52:51;;;;;;;27.33;20.48;;;;;;;;;;6257387;28;20334;-74
2023/10/01 03:55:55;;;;;;;23.98;19.58;;;;;;;;;;6265225;28;20108;-76
2023/10/01 03:58:58;;;;;;;26.10;20.23;;;;;;;;;;6268049;28;20060;-75
2023/10/01 04:01:59;;;;;;;27.48;20.25;;;;;;;;;;6264586;28;20113;-75
2023/10/01 04:05:02;;;;;;;27.73;19.90;;;;;;;;;;6265830;28;20284;-75
2023/10/01 04:08:07;;;;;;;28.00;20.58;;;;;;;;;;6268459;28;20150;-74
2023/10/01 04:11:11;;;;;;;26.27;19.00;;;;;;;;;;6268382;28;20361;-74
2023/10/01 04:14:17;;;;;;;25.02;18.45;;;;;;;;;;6266803;28;20052;-74
2023/10/01 04:17:19;;;;;;;23.75;18.73;;;;;;;;;;6267902;28;20052;-76
2023/10/01 04:20:21;;;;;;;25.55;19.42;;;;;;;;;;6266295;28;20088;-75
2023/10/01 04:23:27;;;;;;;26.52;19.17;;;;;;;;;;6267216;28;20321;-74
2023/10/01 04:26:31;;;;;;;26.00;19.08;;;;;;;;;;6267139;28;20285;-74
2023/10/01 04:29:44;;;;;;;24.52;19.17;;;;;;;;;;6267415;28;20242;-76
2023/10/01 04:32:47;;;;;;;;;;;;;;;;;;6269122;28;20155;-76
2023/10/01 04:35:55;;;;;;;26.48;19.63;;;;;;;;;;6264628;28;19924;-76
2023/10/01 04:39:00;;;;;;;23.08;19.33;;;;;;;;;;6266036;28;20091;-73
2023/10/01 04:42:02;;;;;;;24.58;19.33;;;;;;;;;;6265122;28;20057;-75
2023/10/01 04:45:22;;;;;;;27.65;19.65;;;;;;;;;;6263172;28;20045;-75
2023/10/01 04:48:24;;;;;;;24.67;18.80;;;;;;;;;;6265551;28;20053;-76
2023/10/01 04:51:44;;;;;;;25.33;19.67;;;;;;;;;;6263342;28;20041;-76
2023/10/01 04:54:49;;;;;;;27.35;20.08;;;;;;;;;;6266270;28;20065;-75
2023/10/01 04:57:51;;;;;;;26.90;20.95;;;;;;;;;;6267919;28;20128;-76
2023/10/01 05:00:56;;;;;;;27.48;19.98;;;;;;;;;;6261192;28;20049;-73
2023/10/01 05:03:57;;;;;;;25.95;19.52;;;;;;;;;;6267727;28;20336;-75
2023/10/01 05:07:04;;;;;;;24.85;18.90;;;;;;;;;;6262953;28;20057;-75
2023/10/01 05:10:08;;;;;;;29.00;18.55;;;;;;;;;;6255411;28;20049;-75
2023/10/01 05:13:11;;;;;;;25.52;19.23;;;;;;;;;;6257423;28;20051;-75
2023/10/01 05:16:18;;;;;;;26.17;18.92;;;;;;;;;;6253415;28;20081;-74
2023/10/01 05:19:23;;;;;;;22.73;18.80;;;;;;;;;;6261670;28;20253;-75
2023/10/01 05:22:25;;;;;;;26.65;18.67;;;;;;;;;;6261997;28;20053;-75
2023/10/01 05:25:27;;;;;;;26.65;18.55;;;;;;;;;;6265485;28;20353;-75
2023/10/01 05:28:36;;;;;;;24.23;18.50;;;;;;;;;;6257535;28;20115;-74
2023/10/01 05:31:40;;;;;;;22.73;17.85;;;;;;;;;;6255306;28;20341;-74
2023/10/01 05:34:46;;;;;;;27.10;18.58;;;;;;;;;;6251334;28;20371;-76
2023/10/01 05:37:49;;;;;;;25.20;19.10;;;;;;;;;;6254541;28;20060;-76
2023/10/01 05:40:54;;;;;;;25.10;18.98;;;;;;;;;;6254940;28;20061;-75
2023/10/01 05:43:56;;;;;;;25.45;18.67;;;;;;;;;;6263883;28;20053;-75
2023/10/01 05:46:59;;;;;;;26.17;18.65;;;;;;;;;;6266443;28;20052;-75
2023/10/01 05:50:08;;;;;;;28.48;19.17;;;;;;;;;;6258220;28;20250;-76
2023/10/01 05:53:10;;;;;;;24.70;18.90;;;;;;;;;;6253080;28;20052;-75
2023/10/01 05:56:15;;;;;;;27.48;20.48;;;;;;;;;;6251373;28;20404;-75
2023/10/01 05:59:20;;;;;;;23.00;19.08;;;;;;;;;;6254672;28;20064;-76
2023/10/01 06:02:41;;;;;;;23.95;19.05;;;;;;;;;;6256004;28;20060;-75
2023/10/01 06:05:50;;;;;;;23.83;20.15;;;;;;;;;;6255164;28;20345;-74
2023/10/01 06:08:58;;;;;;;28.30;21.15;;;;;;;;;;6251044;28;20057;-76
2023/10/01 06:12:05;;;;;;;24.05;19.77;;;;;;;;;;6255033;28;20059;-74
2023/10/01 06:15:11;;;;;;;24.77;20.13;;;;;;;;;;6252438;28;20044;-76
2023/10/01 06:18:14;;;;;;;28.27;21.75;;;;;;;;;;6252114;28;20380;-73
2023/10/01 06:21:18;;;;;;;27.45;20.92;;;;;;;;;;6253756;28;20061;-76
2023/10/01 06:24:21;;;;;;;26.90;19.35;;;;;;;;;;6253756;28;20135;-76
2023/10/01 06:27:25;;;;;;;28.80;20.33;;;;;;;;;;6253455;28;20057;-76
2023/10/01 06:30:26;;;;;;;27.55;19.73;;;;;;;;;;6256820;28;20391;-75
2023/10/01 06:33:35;;;;;;;24.65;18.25;;;;;;;;;;6256473;28;20120;-77
2023/10/01 06:36:37;;;;;;;24.50;19.48;;;;;;;;;;6255742;28;20049;-76
2023/10/01 06:39:41;;;;;;;22.95;18.85;;;;;;;;;;6256283;28;20048;-74
2023/10/01 06:42:43;;;;;;;23.08;18.25;;;;;;;;;;6256520;28;20316;-75
2023/10/01 06:45:44;;;;;;;22.63;17.88;;;;;;;;;;6256203;28;20064;-76
2023/10/01 06:48:49;;;;;;;21.92;16.40;;;;;;;;;;6256480;28;20045;-74
2023/10/01 06:51:51;;;;;;;25.10;17.75;;;;;;;;;;6255965;28;20053;-74
2023/10/01 06:54:53;;;;;;;20.42;17.38;;;;;;;;;;6257562;28;20360;-73
2023/10/01 06:57:56;;;;;;;21.73;16.45;;;;;;;;;;6257398;28;20214;-74
2023/10/01 07:00:57;;;;;;;23.37;17.93;;;;;;;;;;6261472;28;20049;-74
2023/10/01 07:04:00;;;;;;;24.10;17.58;;;;;;;;;;6246210;28;20053;-74
2023/10/01 07:07:20;;;;;;;24.67;17.83;;;;;;;;;;6268313;28;20056;-74
2023/10/01 07:10:21;;;;;;;24.05;18.75;;;;;;;;;;6269119;28;20246;-76
2023/10/01 07:13:23;;;;;;;21.58;17.08;;;;;;;;;;6267238;28;20053;-76
2023/10/01 07:16:36;;;;;;;22.08;17.83;;;;;;;;;;6265359;28;20278;-76
2023/10/01 07:19:40;;;;;;;20.20;16.35;;;;;;;;;;6266746;28;20063;-75
2023/10/01 07:22:44;;;;;;;21.75;17.55;;;;;;;;;;6265938;28;20264;-75
2023/10/01 07:25:47;;;;;;;22.75;17.55;;;;;;;;;;6265953;28;20060;-76
2023/10/01 07:28:55;;;;;;;23.20;18.05;;;;;;;;;;6256025;28;20241;-75
2023/10/01 07:31:58;;;;;;;22.88;17.75;;;;;;;;;;6242243;28;20245;-75
2023/10/01 07:35:06;;;;;;;19.73;16.80;;;;;;;;;;6256015;28;20059;-75
2023/10/01 07:38:08;;;;;;;20.35;15.57;;;;;;;;;;6253950;28;20057;-74
2023/10/01 07:41:12;;;;;;;18.52;14.98;;;;;;;;;;6257070;28;20215;-77
2023/10/01 07:44:15;;;;;;;20.10;15.88;;;;;;;;;;6255453;28;20058;-76
2023/10/01 07:47:29;;;;;;;20.80;16.93;;;;;;;;;;6255507;28;20067;-75
2023/10/01 07:50:33;;;;;;;20.08;16.35;;;;;;;;;;6254572;28;20468;-76
2023/10/01 07:53:34;;;;;;;20.05;15.70;;;;;;;;;;6257788;28;20053;-75
2023/10/01 07:56:39;;;;;;;20.27;15.38;;;;;;;;;;6255493;28;20112;-76
2023/10/01 07:59:43;;;;;;;21.52;15.60;;;;;;;;;;6268981;28;20068;-76
2023/10/01 08:03:28;;;;;;;22.10;15.40;;;;;;;;;;6265529;28;20281;-75
2023/10/01 08:06:25;;;;;;;19.08;16.13;;;;;;;;;;6269115;28;20049;-76
2023/10/01 08:09:31;;;;;;;22.80;15.70;;;;;;;;;;6261166;28;20073;-76
2023/10/01 08:15:58;;;;;;;21.08;17.00;;;;;;;;;;6253750;28;20061;-76
2023/10/01 08:18:59;;;;;;;22.05;16.20;;;;;;;;;;6253776;28;21260;-77
2023/10/01 08:22:13;;;;;;;26.17;16.75;;;;;;;;;;6254012;28;20944;-76
2023/10/01 08:25:15;;;;;;;23.40;17.65;;;;;;;;;;6254307;28;20053;-76
2023/10/01 08:28:29;;;;;;;20.10;16.50;;;;;;;;;;6255880;28;20067;-76
2023/10/01 08:32:07;;;;;;;20.13;17.48;;;;;;;;;;6254171;28;20052;-76
2023/10/01 08:35:06;;;;;;;20.38;16.65;;;;;;;;;;6254935;28;20112;-75
2023/10/01 08:38:15;;;;;;;21.17;16.42;;;;;;;;;;6265306;28;20075;-76
2023/10/01 08:41:32;;;;;;;21.88;16.13;;;;;;;;;;6268071;28;20045;-75
2023/10/01 08:44:34;;;;;;;18.48;15.05;;;;;;;;;;6260875;28;20355;-76
2023/10/01 08:47:35;;;;;;;18.23;14.40;;;;;;;;;;6255118;28;20065;-76
2023/10/01 08:50:40;;;;;;;16.63;13.50;;;;;;;;;;6253246;28;20053;-76
2023/10/01 08:53:44;;;;;;;16.85;14.15;;;;;;;;;;6254963;28;20045;-76
2023/10/01 08:56:46;;;;;;;18.40;14.88;;;;;;;;;;6253124;28;20057;-77
2023/10/01 08:59:53;;;;;;;18.45;16.20;;;;;;;;;;6253645;28;20120;-76
2023/10/01 09:03:10;;;;;;;20.55;15.00;;;;;;;;;;6252657;28;20069;-76
2023/10/01 09:06:24;;;;;;;15.55;13.95;;;;;;;;;;6253097;28;20052;-76
2023/10/01 09:09:36;;;;;;;18.73;15.20;;;;;;;;;;6253541;28;20128;-76
2023/10/01 09:12:46;;;;;;;16.98;14.40;;;;;;;;;;6255571;28;21031;-76
2023/10/01 09:15:54;;;;;;;19.05;15.07;;;;;;;;;;6251164;28;20057;-76
2023/10/01 09:19:05;;;;;;;17.92;14.35;;;;;;;;;;6253976;28;20064;-76
2023/10/01 09:22:15;;;;;;;18.95;14.32;;;;;;;;;;6249146;28;20098;-76
2023/10/01 09:25:20;;;;;;;21.58;14.30;;;;;;;;;;6253554;28;20108;-76
2023/10/01 09:28:37;;;;;;;20.08;14.15;;;;;;;;;;6248577;28;20053;-75
2023/10/01 09:31:52;;;;;;;19.70;14.05;;;;;;;;;;6247289;28;20352;-76
2023/10/01 09:34:58;;;;;;;18.25;15.43;;;;;;;;;;6248325;28;20118;-77
2023/10/01 09:38:11;;;;;;;17.20;13.88;;;;;;;;;;6250240;28;20052;-77
2023/10/01 09:41:19;;;;;;;18.33;12.93;;;;;;;;;;6249340;28;20063;-77
2023/10/01 09:44:21;;;;;;;17.23;12.02;;;;;;;;;;6249598;28;20064;-76
2023/10/01 09:47:27;;;;;;;14.23;12.60;;;;;;;;;;6248194;28;20290;-76
2023/10/01 09:50:29;;;;;;;14.45;12.13;;;;;;;;;;6248967;28;20099;-75
2023/10/01 09:53:43;;;;;;;14.50;11.30;;;;;;;;;;6249056;28;20057;-75
2023/10/01 09:56:47;;;;;;;17.90;12.82;;;;;;;;;;6248476;28;20079;-75
2023/10/01 09:59:49;;;;;;;16.77;12.55;;;;;;;;;;6249705;28;20049;-76
2023/10/01 10:02:52;;;;;;;15.77;11.82;;;;;;;;;;6250051;28;20192;-76
2023/10/01 10:05:54;;;;;;;15.00;11.30;;;;;;;;;;6253978;28;20149;-76
2023/10/01 10:09:06;;;;;;;11.50;10.25;;;;;;;;;;6251598;28;20076;-76
2023/10/01 10:12:10;;;;;;;13.38;10.27;;;;;;;;;;6255119;28;20061;-75
2023/10/01 10:15:16;;;;;;;13.43;10.02;;;;;;;;;;6254455;28;20245;-77
2023/10/01 10:18:23;;;;;;;12.35;9.82;;;;;;;;;;6254162;28;20063;-76
2023/10/01 10:21:36;;;;;;;16.15;10.45;;;;;;;;;;6246779;28;20237;-76
2023/10/01 10:24:45;;;;;;;12.13;9.32;;;;;;;;;;6253794;28;20057;-76
2023/10/01 10:27:49;;;;;;;9.52;8.52;;;;;;;;;;6253489;28;20107;-76
2023/10/01 10:31:29;;;;;;;9.70;8.70;;;;;;;;;;6254199;28;20290;-77
2023/10/01 10:34:36;;;;;;;12.18;8.77;;;;;;;;;;6252269;28;20064;-75
2023/10/01 10:37:47;;;;;;;12.80;8.80;;;;;;;;;;6253395;28;20049;-76
2023/10/01 10:41:05;;;;;;;10.13;7.40;;;;;;;;;;6251435;28;20305;-77
2023/10/01 10:44:08;;;;;;;11.05;7.88;;;;;;;;;;6252544;28;20148;-76
2023/10/01 10:47:11;;;;;;;16.08;8.43;;;;;;;;;;6254808;28;20992;-77
2023/10/01 10:50:15;;;;;;;11.30;7.72;;;;;;;;;;6252556;28;20090;-77
2023/10/01 10:53:19;;;;;;;10.60;8.32;;;;;;;;;;6251468;28;20056;-78
2023/10/01 10:56:35;;;;;;;9.30;6.82;;;;;;;;;;6249977;28;20384;-75
2023/10/01 10:59:39;;;;;;;12.23;8.45;;;;;;;;;;6253538;28;20325;-77
2023/10/01 11:05:56;;;;;;;9.15;7.38;;;;;;;;;;6264800;28;20060;-77
2023/10/01 11:08:58;;;;;;;12.18;8.43;;;;;;;;;;6267734;28;20056;-77
2023/10/01 11:12:07;;;;;;;13.70;9.00;;;;;;;;;;6269376;28;20053;-76
2023/10/01 11:15:24;;;;;;;11.77;8.48;;;;;;;;;;6267918;28;20057;-76
2023/10/01 11:18:26;;;;;;;14.20;8.45;;;;;;;;;;6265853;28;20048;-76
2023/10/01 11:21:31;;;;;;;10.45;6.90;;;;;;;;;;6264698;28;20127;-77
2023/10/01 11:24:35;;;;;;;8.88;7.78;;;;;;;;;;6264658;28;20076;-77
2023/10/01 11:27:44;;;;;;;13.65;9.07;;;;;;;;;;6266256;28;20044;-77
2023/10/01 11:30:48;;;;;;;12.63;7.57;;;;;;;;;;6266831;28;20049;-77
2023/10/01 11:34:03;;;;;;;12.45;8.38;;;;;;;;;;6263089;28;20226;-76
2023/10/01 11:37:11;;;;;;;8.68;7.32;;;;;;;;;;6255361;28;20077;-77
2023/10/01 11:40:14;;;;;;;11.52;7.20;;;;;;;;;;6249290;28;20060;-77
2023/10/01 11:43:23;;;;;;;9.05;7.60;;;;;;;;;;6251725;28;20053;-77
2023/10/01 11:49:45;;;;;;;9.93;8.23;;;;;;;;;;6246242;28;20065;-76
2023/10/01 11:53:05;;;;;;;8.55;7.55;;;;;;;;;;6251574;28;20057;-77
2023/10/01 11:56:11;;;;;;;15.40;12.00;;;;;;;;;;6250094;28;20052;-77
2023/10/01 11:59:22;;;;;;;14.98;11.13;;;;;;;;;;6250094;28;20072;-77
2023/10/01 12:02:27;;;;;;;10.17;8.67;;;;;;;;;;6255642;28;20246;-77
2023/10/01 12:05:38;;;;;;;12.63;10.30;;;;;;;;;;6266581;28;20063;-76
2023/10/01 12:08:47;;;;;;;13.82;11.20;;;;;;;;;;6271230;28;20071;-76
2023/10/01 12:12:04;;;;;;;13.80;8.95;;;;;;;;;;6266453;28;20059;-76
2023/10/01 12:18:36;;;;;;;14.70;9.98;;;;;;;;;;6256079;28;20056;-77
2023/10/01 12:21:38;;;;;;;12.45;9.05;;;;;;;;;;6253455;28;20052;-77
2023/10/01 12:24:42;;;;;;;10.60;9.18;;;;;;;;;;6256941;28;20054;-77
2023/10/01 12:27:47;;;;;;;11.07;9.20;;;;;;;;;;6264582;28;20112;-77
2023/10/01 12:30:57;;;;;;;14.10;10.98;;;;;;;;;;6267828;28;20057;-77
2023/10/01 12:34:00;;;;;;;12.20;10.32;;;;;;;;;;6262488;28;20347;-78
2023/10/01 12:37:07;;;;;;;12.70;9.18;;;;;;;;;;6254061;28;20044;-77
2023/10/01 12:40:16;;;;;;;10.85;9.55;;;;;;;;;;6276983;28;20048;-77
2023/10/01 12:43:38;;;;;;;10.57;9.45;;;;;;;;;;6261055;28;20127;-76
2023/10/01 12:46:51;;;;;;;13.68;10.20;;;;;;;;;;6262811;28;20064;-77
2023/10/01 12:49:59;;;;;;;13.40;8.68;;;;;;;;;;6263025;28;20237;-77
2023/10/01 12:56:43;;;;;;;9.27;8.35;;;;;;;;;;6264156;28;20076;-76
2023/10/01 12:59:44;;;;;;;11.65;7.40;;;;;;;;;;6266046;28;20568;-77
2023/10/01 13:02:47;;;;;;;12.20;9.25;;;;;;;;;;6264171;28;20581;-77
2023/10/01 13:09:34;;;;;;;11.68;8.90;;;;;;;;;;6251567;28;20056;-77
2023/10/01 13:12:31;;;;;;;13.43;9.52;;;;;;;;;;6263476;28;20053;-77
2023/10/01 13:15:36;;;;;;;12.50;9.55;;;;;;;;;;6267630;28;20057;-76
2023/10/01 13:18:42;;;;;;;10.48;8.00;;;;;;;;;;6260228;28;20045;-77
2023/10/01 13:21:47;;;;;;;13.63;10.13;;;;;;;;;;6264241;28;20103;-77
2023/10/01 13:24:54;;;;;;;11.13;9.82;;;;;;;;;;6265950;28;20063;-77
2023/10/01 13:28:02;;;;;;;10.30;8.88;;;;;;;;;;6261147;28;20245;-76
2023/10/01 13:31:04;;;;;;;10.80;8.38;;;;;;;;;;6262786;28;20057;-77
2023/10/01 13:34:21;;;;;;;12.50;7.90;;;;;;;;;;6265219;28;20053;-77
2023/10/01 14:08:43;;;;;;;13.07;8.13;;;;;;;;;;6266073;28;20045;-77
2023/10/01 14:11:39;;;;;;;11.23;9.45;;;;;;;;;;6190898;28;20055;-77
2023/10/01 14:14:43;;;;;;;11.10;8.95;;;;;;;;;;6190373;28;20054;-78
2023/10/01 14:17:52;;;;;;;10.55;8.27;;;;;;;;;;6188983;28;20069;-77
2023/10/01 14:20:54;;;;;;;15.02;13.32;;;;;;;;;;6189275;28;20077;-77
2023/10/01 14:24:21;;;;;;;13.32;11.43;;;;;;;;;;6188988;28;20058;-78
2023/10/01 14:27:29;;;;;;;15.50;13.52;;;;;;;;;;6191589;28;20066;-78
2023/10/01 14:30:31;;;;;;;13.25;11.88;;;;;;;;;;6196820;28;20062;-78
2023/10/01 14:33:34;;;;;;;14.65;12.57;;;;;;;;;;6260226;28;20345;-78
2023/10/01 14:36:39;;;;;;;14.82;12.85;;;;;;;;;;6263744;28;20115;-78
2023/10/01 14:39:47;;;;;;;13.85;11.20;;;;;;;;;;6265687;28;20109;-78
2023/10/01 14:42:58;;;;;;;15.30;11.80;;;;;;;;;;6264435;28;20056;-77
2023/10/01 14:49:29;;;;;;;13.85;11.38;;;;;;;;;;6262532;28;20173;-79
2023/10/01 14:52:32;;;;;;;15.43;12.40;;;;;;;;;;6267029;28;20411;-78
2023/10/01 14:55:40;;;;;;;13.45;12.05;;;;;;;;;;6268946;28;20064;-77
2023/10/01 14:58:43;;;;;;;11.95;8.32;;;;;;;;;;6266781;28;20052;-77
2023/10/01 15:01:46;;;;;;;12.18;10.30;;;;;;;;;;6266292;28;20069;-80
2023/10/01 15:04:48;;;;;;;13.77;9.75;;;;;;;;;;6249842;28;20045;-78
2023/10/01 15:07:51;;;;;;;17.80;9.93;;;;;;;;;;6270687;28;20056;-78
2023/10/01 15:10:53;;;;;;;11.30;9.70;;;;;;;;;;6269965;28;20258;-79
2023/10/01 15:13:58;;;;;;;14.27;9.02;;;;;;;;;;6267642;28;20056;-78
2023/10/01 15:17:01;;;;;;;10.98;9.80;;;;;;;;;;6273810;28;20566;-78
2023/10/01 15:20:05;;;;;;;12.57;10.23;;;;;;;;;;6268025;28;21499;-78
2023/10/01 15:23:15;;;;;;;11.23;9.30;;;;;;;;;;6260146;28;20067;-78
2023/10/01 15:26:20;;;;;;;19.95;9.70;;;;;;;;;;6269054;28;20228;-78
2023/10/01 15:29:31;;;;;;;13.85;9.07;;;;;;;;;;6267881;28;20041;-79
2023/10/01 15:32:35;;;;;;;9.90;8.85;;;;;;;;;;6261831;28;20056;-78
2023/10/01 15:35:43;;;;;;;13.48;9.60;;;;;;;;;;6251914;28;20410;-78
2023/10/01 15:38:50;;;;;;;12.40;9.20;;;;;;;;;;6270466;28;20060;-78
2023/10/01 15:45:43;;;;;;;12.07;8.13;;;;;;;;;;6173191;28;20335;-79
2023/10/01 15:48:49;;;;;;;17.25;9.35;;;;;;;;;;6191494;28;20097;-78
2023/10/01 15:51:52;;;;;;;11.60;9.18;;;;;;;;;;6194461;28;20129;-78
2023/10/01 15:54:58;;;;;;;11.52;9.57;;;;;;;;;;6190076;28;20120;-78
2023/10/01 15:58:02;;;;;;;16.60;10.30;;;;;;;;;;6191955;28;20112;-78
2023/10/01 16:01:23;;;;;;;10.85;9.50;;;;;;;;;;6190846;28;20059;-78
2023/10/01 16:04:25;;;;;;;13.27;10.90;;;;;;;;;;6192145;28;20054;-78
2023/10/01 16:07:53;;;;;;;13.73;9.52;;;;;;;;;;6192936;28;20054;-78
2023/10/01 16:11:00;;;;;;;10.60;9.50;;;;;;;;;;6176144;28;20381;-78
2023/10/01 16:14:04;;;;;;;14.38;9.93;;;;;;;;;;6182656;28;20217;-78
2023/10/01 16:21:11;;;;;;;16.55;10.02;;;;;;;;;;6131001;28;20049;-78
2023/10/01 16:24:17;;;;;;;11.68;8.73;;;;;;;;;;6255242;28;20104;-78
2023/10/01 16:27:43;;;;;;;11.52;9.23;;;;;;;;;;6266967;28;20040;-78
2023/10/01 16:34:43;;;;;;;12.23;9.98;;;;;;;;;;6270446;28;20053;-78
2023/10/01 16:37:50;;;;;;;13.95;9.85;;;;;;;;;;6259126;28;20044;-78
2023/10/01 16:40:52;;;;;;;12.05;9.15;;;;;;;;;;6272210;28;20333;-78
2023/10/01 16:43:59;;;;;;;17.33;9.18;;;;;;;;;;6269265;28;20053;-78
2023/10/01 16:47:02;;;;;;;16.15;9.93;;;;;;;;;;6252168;28;20116;-78
2023/10/01 16:50:28;;;;;;;16.13;9.48;;;;;;;;;;6266633;28;20053;-78
2023/10/01 16:53:46;;;;;;;13.68;8.98;;;;;;;;;;6260722;28;20045;-78
2023/10/01 16:56:58;;;;;;;14.27;8.93;;;;;;;;;;6266521;28;20054;-77
2023/10/01 17:00:00;;;;;;;13.82;9.90;;;;;;;;;;6265292;28;20057;-78
2023/10/01 17:03:10;;;;;;;17.70;11.13;;;;;;;;;;6266572;28;20060;-78
2023/10/01 17:06:12;;;;;;;15.65;11.18;;;;;;;;;;6264587;28;20056;-78
2023/10/01 17:09:26;;;;;;;20.75;11.38;;;;;;;;;;6266803;28;20045;-78
2023/10/01 17:12:30;;;;;;;18.33;10.30;;;;;;;;;;6268751;28;20103;-78
2023/10/01 17:15:39;;;;;;;18.55;11.35;;;;;;;;;;6268402;28;20268;-78
2023/10/01 17:18:48;;;;;;;19.27;10.00;;;;;;;;;;6263351;28;20125;-79
2023/10/01 17:21:50;;;;;;;18.65;10.38;;;;;;;;;;6265303;28;20797;-78
2023/10/01 17:24:56;;;;;;;14.70;8.90;;;;;;;;;;6263074;28;22047;-78
2023/10/01 17:28:01;;;;;;;13.32;10.15;;;;;;;;;;6267032;28;20492;-78
2023/10/01 17:31:07;;;;;;;14.27;9.50;;;;;;;;;;6255909;28;20061;-78
2023/10/01 17:34:11;;;;;;;20.13;9.98;;;;;;;;;;6264220;28;20341;-79
2023/10/01 17:37:20;;;;;;;15.80;9.45;;;;;;;;;;6271878;28;20057;-79
2023/10/01 17:40:26;;;;;;;16.05;9.80;;;;;;;;;;6264936;28;20322;-79
2023/10/01 17:43:30;;;;;;;11.48;9.10;;;;;;;;;;6263690;28;20049;-78
2023/10/01 17:46:34;;;;;;;15.48;9.43;;;;;;;;;;6266240;28;20314;-79
2023/10/01 17:49:45;;;;;;;21.08;9.95;;;;;;;;;;6260258;28;20084;-79
2023/10/01 17:52:47;;;;;;;15.15;9.27;;;;;;;;;;6263193;28;20067;-78
2023/10/01 17:56:20;;;;;;;17.05;9.43;;;;;;;;;;6265107;28;20125;-79
2023/10/01 17:59:29;;;;;;;18.65;9.88;;;;;;;;;;6255793;28;20059;-79
2023/10/01 18:02:38;;;;;;;11.38;9.25;;;;;;;;;;6263527;28;20664;-78
2023/10/01 18:05:46;;;;;;;10.80;9.23;;;;;;;;;;6241723;28;20035;-78
2023/10/01 18:08:51;;;;;;;15.73;10.38;;;;;;;;;;6264285;28;20045;-78
2023/10/01 18:12:01;;;;;;;14.70;10.05;;;;;;;;;;6268825;28;20115;-78
2023/10/01 18:15:03;;;;;;;15.10;9.35;;;;;;;;;;6264793;28;20060;-78
2023/10/01 18:18:11;;;;;;;14.93;10.40;;;;;;;;;;6257830;28;20048;-78
2023/10/01 18:21:15;;;;;;;14.15;9.07;;;;;;;;;;6262279;28;20243;-79
2023/10/01 18:24:17;;;;;;;12.65;9.77;;;;;;;;;;6265413;28;20045;-78
2023/10/01 18:27:23;;;;;;;16.33;10.70;;;;;;;;;;6271600;28;20136;-78
2023/10/01 18:30:26;;;;;;;16.10;10.32;;;;;;;;;;6270512;28;20073;-78
2023/10/01 18:33:29;;;;;;;13.83;10.40;;;;;;;;;;6269121;28;20257;-78
2023/10/01 18:36:31;;;;;;;18.20;11.13;;;;;;;;;;6268326;28;20498;-79
2023/10/01 18:39:40;;;;;;;15.35;10.65;;;;;;;;;;6269864;28;20110;-79
2023/10/01 18:42:44;;;;;;;17.75;11.02;;;;;;;;;;6271429;28;20132;-79
2023/10/01 18:45:49;;;;;;;14.23;10.40;;;;;;;;;;6267010;28;20060;-78
2023/10/01 18:48:51;;;;;;;15.35;9.98;;;;;;;;;;6270123;28;20054;-79
2023/10/01 18:51:54;;;;;;;12.27;10.10;;;;;;;;;;6268427;28;20375;-79
2023/10/01 18:54:56;;;;;;;13.02;9.52;;;;;;;;;;6265633;28;20049;-78
2023/10/01 18:57:59;;;;;;;17.13;11.03;;;;;;;;;;6271154;28;20250;-78
2023/10/01 19:01:01;;;;;;;14.35;11.15;;;;;;;;;;6269625;28;20055;-78
2023/10/01 19:04:09;;;;;;;12.93;10.13;;;;;;;;;;6270217;28;20083;-78
2023/10/01 19:07:11;;;;;;;13.82;10.25;;;;;;;;;;6264544;28;20057;-78
2023/10/01 19:10:14;;;;;;;14.50;11.27;;;;;;;;;;6270693;28;20223;-78
2023/10/01 19:13:17;;;;;;;13.75;10.63;;;;;;;;;;6268294;28;20041;-78
2023/10/01 19:16:19;;;;;;;17.10;11.13;;;;;;;;;;6267138;28;20045;-78
2023/10/01 19:19:27;;;;;;;16.58;11.35;;;;;;;;;;6266981;28;20053;-78
2023/10/01 19:22:29;;;;;;;19.50;11.63;;;;;;;;;;6266317;28;20056;-78
2023/10/01 19:25:32;;;;;;;18.52;12.93;;;;;;;;;;6267642;28;20061;-78